Time;durP1;ratioP1;P1;durP2;ratioP2;P2;SDS_P1;SDS_P2;PMS_P1;PMS_P2;Temp;Humidity;BMP_temperature;BMP_pressure;BME280_temperature;BME280_humidity;BME280_pressure;Samples;Min_cycle;Max_cycle;Signal;HPM_P1;HPM_P2
2024/01/12 00:00:50;;;;;;;32.60;15.05;;;;;;;6.30;78.37;102709.75;5022115;27;97028;-75
2024/01/12 00:03:17;;;;;;;27.20;13.65;;;;;;;6.29;78.21;102710.59;5028306;27;97064;-76
2024/01/12 00:05:45;;;;;;;30.83;14.80;;;;;;;6.32;78.36;102703.63;5030384;27;99034;-76
2024/01/12 00:08:13;;;;;;;27.55;14.65;;;;;;;6.27;78.95;102699.19;5023812;27;99099;-74
2024/01/12 00:10:39;;;;;;;25.52;11.70;;;;;;;5.47;81.15;102702.34;5027918;27;97299;-73
2024/01/12 00:13:08;;;;;;;19.35;10.80;;;;;;;5.01;85.44;102703.28;5025551;27;97670;-73
2024/01/12 00:15:34;;;;;;;20.95;12.18;;;;;;;4.85;86.45;102711.72;5027231;27;99587;-74
2024/01/12 00:18:00;;;;;;;24.73;12.10;;;;;;;4.65;87.40;102713.06;5026753;28;98071;-74
2024/01/12 00:20:27;;;;;;;22.40;12.02;;;;;;;4.94;87.44;102711.00;5026402;27;96781;-74
2024/01/12 00:22:56;;;;;;;21.13;12.90;;;;;;;5.24;86.02;102714.19;5028107;27;96834;-74
2024/01/12 00:25:24;;;;;;;23.40;12.38;;;;;;;5.27;84.95;102710.72;5024756;28;99156;-73
2024/01/12 00:27:50;;;;;;;28.70;12.23;;;;;;;5.46;84.34;102707.56;5027307;27;101997;-73
2024/01/12 00:30:17;;;;;;;30.08;13.77;;;;;;;5.55;83.41;102715.59;5018838;27;97547;-73
2024/01/12 00:32:43;;;;;;;31.58;14.23;;;;;;;5.82;82.03;102715.13;5021511;27;97159;-73
2024/01/12 00:35:09;;;;;;;30.88;13.68;;;;;;;5.99;81.16;102719.81;5022726;27;101800;-74
2024/01/12 00:37:36;;;;;;;27.35;13.93;;;;;;;6.25;80.02;102719.28;5020440;27;99272;-72
2024/01/12 00:40:03;;;;;;;29.85;14.32;;;;;;;6.16;80.10;102713.94;5021501;27;97686;-74
2024/01/12 00:42:31;;;;;;;33.30;15.40;;;;;;;5.73;82.55;102718.50;5019058;27;96976;-74
2024/01/12 00:44:57;;;;;;;49.30;21.10;;;;;;;6.17;80.34;102721.81;5023314;27;98998;-74
2024/01/12 00:47:24;;;;;;;25.08;13.13;;;;;;;6.07;79.88;102713.78;5025740;27;99178;-73
2024/01/12 00:49:50;;;;;;;24.13;13.82;;;;;;;5.72;81.13;102719.34;5020883;27;99015;-73
2024/01/12 00:52:17;;;;;;;28.10;13.55;;;;;;;5.82;81.05;102720.38;5023560;27;97605;-72
2024/01/12 00:54:43;;;;;;;26.83;13.32;;;;;;;5.96;80.31;102722.41;5019604;27;98858;-74
2024/01/12 00:57:09;;;;;;;26.75;13.48;;;;;;;6.09;80.37;102714.69;5017938;27;99425;-74
2024/01/12 00:59:37;;;;;;;24.92;13.43;;;;;;;6.37;78.84;102722.94;5012514;27;97115;-74
2024/01/12 01:02:04;;;;;;;28.50;13.10;;;;;;;6.61;77.37;102719.78;5019258;27;96834;-74
2024/01/12 01:04:30;;;;;;;26.50;13.48;;;;;;;6.65;77.16;102713.69;5021933;27;99010;-71
2024/01/12 01:06:57;;;;;;;27.67;12.77;;;;;;;6.53;76.59;102718.78;5021764;27;98146;-71
2024/01/12 01:09:23;;;;;;;31.55;13.18;;;;;;;6.65;76.68;102725.94;5020319;27;97278;-71
2024/01/12 01:11:52;;;;;;;26.45;13.00;;;;;;;6.57;77.31;102720.56;5016527;27;96770;-71
2024/01/12 01:14:19;;;;;;;28.85;14.27;;;;;;;6.72;76.67;102720.78;5025706;27;98924;-70
2024/01/12 01:16:46;;;;;;;32.08;14.65;;;;;;;7.00;74.89;102721.97;5025177;27;99576;-71
2024/01/12 01:19:13;;;;;;;32.47;14.18;;;;;;;6.77;75.34;102719.06;5022517;28;99044;-71
2024/01/12 01:21:39;;;;;;;29.33;14.75;;;;;;;6.58;76.41;102721.47;5015641;27;97772;-70
2024/01/12 01:24:07;;;;;;;25.65;13.43;;;;;;;6.66;75.97;102720.69;5021970;27;98287;-71
2024/01/12 01:26:34;;;;;;;25.33;13.02;;;;;;;6.69;76.08;102714.63;5022389;27;98900;-70
2024/01/12 01:29:00;;;;;;;25.30;13.43;;;;;;;6.56;75.84;102713.59;5023840;27;97301;-70
2024/01/12 01:31:26;;;;;;;29.90;14.15;;;;;;;6.37;76.78;102709.81;5025822;27;97323;-70
2024/01/12 01:33:54;;;;;;;26.08;13.55;;;;;;;6.41;76.73;102713.38;5021034;27;99096;-70
2024/01/12 01:36:20;;;;;;;30.13;13.85;;;;;;;6.26;77.30;102705.31;5025237;27;98767;-70
2024/01/12 01:38:47;;;;;;;28.00;13.88;;;;;;;6.09;78.16;102697.22;5022506;27;97394;-70
2024/01/12 01:41:13;;;;;;;27.30;12.93;;;;;;;5.92;78.76;102691.72;5014788;27;96972;-70
2024/01/12 01:43:40;;;;;;;26.80;12.85;;;;;;;5.91;79.73;102697.81;5025462;27;99060;-70
2024/01/12 01:46:07;;;;;;;27.30;13.98;;;;;;;6.30;77.94;102697.47;5025869;28;99017;-70
2024/01/12 01:48:33;;;;;;;27.02;13.93;;;;;;;6.35;77.62;102702.81;5026133;27;96742;-70
2024/01/12 01:51:02;;;;;;;29.85;13.23;;;;;;;6.75;75.51;102710.31;5024068;27;97196;-70
2024/01/12 01:53:30;;;;;;;27.58;13.90;;;;;;;6.64;75.66;102706.66;5019161;27;100869;-70
2024/01/12 01:55:56;;;;;;;29.08;14.30;;;;;;;6.46;75.81;102705.56;5022288;27;99276;-70
2024/01/12 01:58:23;;;;;;;27.17;14.00;;;;;;;6.71;75.48;102697.97;5024257;27;97463;-70
2024/01/12 02:00:51;;;;;;;34.15;15.38;;;;;;;6.49;76.02;102690.75;5023639;27;97557;-70
2024/01/12 02:03:17;;;;;;;33.25;14.90;;;;;;;6.76;75.32;102690.19;5022178;27;99468;-70
2024/01/12 02:05:47;;;;;;;30.98;15.35;;;;;;;6.64;75.28;102684.75;5026300;27;98991;-70
2024/01/12 02:08:15;;;;;;;29.65;15.27;;;;;;;6.35;76.13;102692.31;5018764;27;96843;-70
2024/01/12 02:10:41;;;;;;;28.30;14.82;;;;;;;6.47;75.73;102687.19;5024009;27;96974;-70
2024/01/12 02:13:08;;;;;;;26.75;13.77;;;;;;;6.46;76.27;102685.44;5016310;27;98930;-70
2024/01/12 02:15:33;;;;;;;30.15;13.80;;;;;;;6.34;76.19;102690.53;5017790;27;99245;-70
2024/01/12 02:17:59;;;;;;;;;;;;;;;6.58;75.76;102695.19;5024900;27;96726;-70
2024/01/12 02:20:26;;;;;;;27.48;14.07;;;;;;;6.51;75.59;102691.63;5023612;27;97538;-70
2024/01/12 02:22:54;;;;;;;29.27;14.45;;;;;;;6.23;76.47;102694.78;5023417;27;99107;-70
2024/01/12 02:25:20;;;;;;;29.40;14.40;;;;;;;6.71;75.78;102699.72;5026007;27;98786;-70
2024/01/12 02:27:47;;;;;;;30.45;14.00;;;;;;;6.37;77.19;102695.81;5024363;27;96881;-70
2024/01/12 02:30:14;;;;;;;36.10;14.40;;;;;;;6.30;76.80;102710.59;5014658;27;96893;-70
2024/01/12 02:32:40;;;;;;;28.05;13.80;;;;;;;6.55;76.08;102709.19;5017945;27;98152;-70
2024/01/12 02:35:08;;;;;;;33.15;14.63;;;;;;;6.53;75.94;102703.03;5017840;27;98932;-70
2024/01/12 02:37:34;;;;;;;29.95;14.13;;;;;;;6.22;76.09;102707.03;5015217;27;97183;-70
2024/01/12 02:40:02;;;;;;;35.17;15.40;;;;;;;6.43;76.68;102708.16;5023597;27;97074;-69
2024/01/12 02:42:28;;;;;;;27.65;13.98;;;;;;;6.12;77.27;102713.00;5020919;28;98942;-70
2024/01/12 02:44:54;;;;;;;31.38;13.18;;;;;;;6.35;76.46;102705.44;5025373;27;98786;-70
2024/01/12 02:47:21;;;;;;;28.55;14.23;;;;;;;6.41;76.47;102708.13;5022573;27;96794;-71
2024/01/12 02:49:47;;;;;;;34.38;14.80;;;;;;;6.23;76.94;102705.28;5026583;27;97213;-71
2024/01/12 02:52:14;;;;;;;33.03;13.73;;;;;;;6.54;76.10;102714.41;5026641;27;98956;-70
2024/01/12 02:54:40;;;;;;;27.80;13.63;;;;;;;6.68;75.60;102707.59;5022633;27;98854;-70
2024/01/12 02:57:08;;;;;;;31.33;13.70;;;;;;;6.72;74.98;102712.88;5024712;27;96822;-70
2024/01/12 02:59:34;;;;;;;30.45;13.88;;;;;;;6.28;75.96;102716.72;5019592;27;96905;-70
2024/01/12 03:02:00;;;;;;;31.73;14.00;;;;;;;6.60;75.33;102719.75;5027459;27;98802;-70
2024/01/12 03:04:27;;;;;;;28.60;13.77;;;;;;;6.42;75.60;102714.28;5026799;27;99780;-70
2024/01/12 03:06:53;;;;;;;32.90;14.45;;;;;;;6.61;74.96;102713.63;5031990;27;97188;-70
2024/01/12 03:09:19;;;;;;;27.40;13.70;;;;;;;6.46;74.82;102702.94;5026041;27;97766;-71
2024/01/12 03:11:46;;;;;;;33.78;13.82;;;;;;;6.63;74.76;102706.66;5024192;27;98552;-70
2024/01/12 03:14:14;;;;;;;33.03;14.43;;;;;;;6.39;75.89;102702.84;5027909;27;97970;-70
2024/01/12 03:16:40;;;;;;;28.40;13.38;;;;;;;6.52;75.29;102700.38;5022419;27;98410;-70
2024/01/12 03:19:06;;;;;;;34.03;13.85;;;;;;;6.50;75.01;102708.22;5026102;27;97769;-71
2024/01/12 03:21:33;;;;;;;33.67;15.23;;;;;;;6.66;74.57;102704.94;5016910;27;98981;-70
2024/01/12 03:23:59;;;;;;;34.17;14.45;;;;;;;6.89;73.71;102713.09;5020848;27;100264;-70
2024/01/12 03:26:25;;;;;;;30.23;14.05;;;;;;;6.77;73.62;102708.56;5022829;27;97599;-69
2024/01/12 03:28:52;;;;;;;28.15;13.85;;;;;;;6.76;74.03;102700.69;5026876;27;98276;-70
2024/01/12 03:31:21;;;;;;;31.50;14.45;;;;;;;6.71;74.18;102690.09;5021835;27;99378;-70
2024/01/12 03:33:47;;;;;;;32.50;15.90;;;;;;;6.75;74.38;102678.78;5024434;27;98801;-70
2024/01/12 03:36:13;;;;;;;31.20;13.75;;;;;;;6.70;74.10;102677.81;5022838;27;99418;-70
2024/01/12 03:38:39;;;;;;;;;;;;;;;7.02;73.46;102677.31;5021103;27;97445;-70
2024/01/12 03:41:06;;;;;;;29.05;13.82;;;;;;;6.82;73.51;102660.44;5018358;27;99159;-70
2024/01/12 03:43:32;;;;;;;41.25;14.88;;;;;;;6.59;74.73;102645.31;5020902;27;99484;-70
2024/01/12 03:45:59;;;;;;;32.50;14.52;;;;;;;6.32;75.05;102645.88;5027925;27;96789;-70
2024/01/12 03:48:26;;;;;;;26.38;13.18;;;;;;;6.50;75.00;102632.06;5025651;27;97045;-70
2024/01/12 03:50:53;;;;;;;29.10;13.80;;;;;;;6.27;76.23;102629.19;5024463;27;99462;-70
2024/01/12 03:53:19;;;;;;;27.83;12.57;;;;;;;6.45;75.72;102636.41;5020761;27;99055;-70
2024/01/12 03:55:46;;;;;;;25.65;12.93;;;;;;;6.58;74.60;102632.16;5025452;27;97633;-72
2024/01/12 03:58:13;;;;;;;27.08;12.65;;;;;;;6.62;74.40;102629.59;5021703;27;97935;-70
2024/01/12 04:00:39;;;;;;;31.00;13.43;;;;;;;6.73;74.08;102630.59;5020855;27;99543;-70
2024/01/12 04:03:06;;;;;;;27.10;13.82;;;;;;;6.77;73.57;102637.63;5026901;27;98809;-70
2024/01/12 04:05:34;;;;;;;29.10;12.73;;;;;;;6.79;72.98;102633.28;5025126;27;96709;-71
2024/01/12 04:08:00;;;;;;;30.02;14.02;;;;;;;6.55;73.78;102630.41;5019820;27;98510;-70
2024/01/12 04:10:26;;;;;;;26.85;14.02;;;;;;;6.04;75.30;102628.00;5017902;27;98946;-70
2024/01/12 04:12:52;;;;;;;19.80;10.25;;;;;;;5.41;78.77;102628.84;5015331;27;98866;-70
2024/01/12 04:15:19;;;;;;;21.92;11.57;;;;;;;5.09;80.55;102636.19;5025155;27;96964;-70
2024/01/12 04:17:45;;;;;;;24.75;11.60;;;;;;;5.59;79.38;102630.84;5022489;27;97115;-69
2024/01/12 04:20:12;;;;;;;24.92;11.65;;;;;;;5.85;77.90;102644.34;5020608;27;97933;-70
2024/01/12 04:22:40;;;;;;;24.42;11.68;;;;;;;6.08;76.94;102629.84;5026179;27;97642;-69
2024/01/12 04:25:07;;;;;;;23.48;12.05;;;;;;;6.30;75.50;102638.84;5025107;27;97002;-70
2024/01/12 04:27:34;;;;;;;23.10;12.25;;;;;;;6.27;75.14;102638.81;5020959;27;98519;-70
2024/01/12 04:30:00;;;;;;;24.60;12.13;;;;;;;6.08;76.17;102629.84;5022964;27;98900;-70
2024/01/12 04:32:27;;;;;;;27.55;12.70;;;;;;;6.07;75.63;102632.44;5026345;27;98781;-70
2024/01/12 04:34:53;;;;;;;23.95;12.23;;;;;;;6.24;75.45;102644.00;5021706;27;96786;-69
2024/01/12 04:37:21;;;;;;;21.95;11.15;;;;;;;6.45;74.47;102631.13;5027206;27;97367;-69
2024/01/12 04:39:49;;;;;;;23.08;11.40;;;;;;;6.19;74.41;102632.56;5018766;27;99171;-70
2024/01/12 04:42:15;;;;;;;21.73;11.40;;;;;;;6.36;74.15;102631.06;5017971;27;98931;-70
2024/01/12 04:44:43;;;;;;;20.65;11.57;;;;;;;6.15;74.50;102620.28;5024500;27;97310;-70
2024/01/12 04:47:10;;;;;;;24.17;11.27;;;;;;;6.31;74.11;102627.47;5026805;27;99532;-70
2024/01/12 04:49:36;;;;;;;25.10;13.00;;;;;;;5.97;75.48;102621.78;5022366;27;99126;-70
2024/01/12 04:52:03;;;;;;;23.50;11.95;;;;;;;5.93;75.61;102625.25;5016349;27;99876;-70
2024/01/12 04:54:29;;;;;;;20.60;11.02;;;;;;;5.73;76.69;102625.81;5024291;27;96851;-70
2024/01/12 04:56:57;;;;;;;19.23;10.57;;;;;;;5.65;76.87;102630.94;5025942;27;96830;-70
2024/01/12 04:59:24;;;;;;;22.00;11.20;;;;;;;5.55;77.42;102636.91;5015858;27;99356;-70
2024/01/12 05:01:50;;;;;;;21.80;10.98;;;;;;;5.51;77.95;102635.97;5017291;27;99157;-70
2024/01/12 05:04:17;;;;;;;21.98;11.73;;;;;;;5.54;78.11;102640.41;5023925;27;97383;-71
2024/01/12 05:06:43;;;;;;;22.17;11.57;;;;;;;5.71;77.22;102641.50;5029628;27;96794;-70
2024/01/12 05:09:09;;;;;;;23.33;10.90;;;;;;;5.73;76.56;102646.78;5018351;27;98916;-70
2024/01/12 05:11:35;;;;;;;21.15;11.57;;;;;;;5.67;76.69;102649.31;5025355;27;99215;-70
2024/01/12 05:14:03;;;;;;;31.15;15.93;;;;;;;5.78;76.38;102648.59;5025212;27;97665;-70
2024/01/12 05:16:29;;;;;;;27.48;12.35;;;;;;;5.92;75.80;102644.47;5024697;27;96883;-70
2024/01/12 05:18:56;;;;;;;23.30;11.73;;;;;;;5.74;76.21;102638.94;5023732;27;99025;-70
2024/01/12 05:21:22;;;;;;;26.98;13.40;;;;;;;6.00;74.95;102632.34;5018018;27;100265;-71
2024/01/12 05:23:49;;;;;;;26.63;13.75;;;;;;;6.33;74.23;102644.13;5020951;27;96868;-70
2024/01/12 05:26:15;;;;;;;24.08;11.50;;;;;;;6.41;72.53;102655.63;5023680;27;97419;-70
2024/01/12 05:28:41;;;;;;;26.75;12.13;;;;;;;6.30;72.68;102647.59;5024417;27;100946;-71
2024/01/12 05:31:10;;;;;;;27.10;11.90;;;;;;;6.19;73.06;102643.97;5025661;27;99460;-70
2024/01/12 05:33:36;;;;;;;23.42;11.65;;;;;;;5.95;74.02;102648.91;5024622;27;97384;-70
2024/01/12 05:36:03;;;;;;;23.45;11.38;;;;;;;6.37;73.40;102635.41;5016655;27;96958;-70
2024/01/12 05:38:29;;;;;;;20.48;10.85;;;;;;;6.48;72.13;102631.19;5021257;27;99133;-70
2024/01/12 05:40:56;;;;;;;26.23;12.52;;;;;;;6.53;71.68;102632.13;5024753;27;98955;-70
2024/01/12 05:43:22;;;;;;;21.67;11.25;;;;;;;6.66;71.27;102628.75;5015946;27;97299;-69
2024/01/12 05:45:48;;;;;;;22.67;11.00;;;;;;;6.79;70.12;102632.38;5025201;27;98408;-69
2024/01/12 05:48:16;;;;;;;23.02;11.13;;;;;;;6.40;71.02;102640.72;5019856;27;99270;-70
2024/01/12 05:50:42;;;;;;;24.77;11.75;;;;;;;6.67;70.42;102645.41;5022802;27;98811;-69
2024/01/12 05:53:09;;;;;;;24.67;12.43;;;;;;;6.57;70.24;102649.66;5020435;27;97770;-70
2024/01/12 05:55:35;;;;;;;25.73;12.63;;;;;;;6.15;71.58;102641.28;5021438;27;99858;-69
2024/01/12 05:58:03;;;;;;;23.65;11.50;;;;;;;6.32;71.41;102645.00;5019966;27;98819;-69
2024/01/12 06:00:29;;;;;;;29.48;14.30;;;;;;;6.33;71.51;102658.16;5015887;28;97572;-69
2024/01/12 06:02:55;;;;;;;29.15;13.35;;;;;;;6.41;71.19;102658.25;5026750;27;96699;-68
2024/01/12 06:05:23;;;;;;;31.15;14.27;;;;;;;6.32;71.92;102651.13;5025084;27;97527;-69
2024/01/12 06:07:49;;;;;;;29.52;14.15;;;;;;;6.41;71.52;102645.13;5020944;27;101135;-68
2024/01/12 06:10:16;;;;;;;33.10;14.10;;;;;;;6.16;73.02;102643.94;5016234;27;98807;-69
2024/01/12 06:12:42;;;;;;;27.92;13.82;;;;;;;5.90;74.14;102646.22;5024243;27;97087;-68
2024/01/12 06:15:08;;;;;;;28.60;12.35;;;;;;;5.50;75.50;102649.97;5021517;27;96903;-68
2024/01/12 06:17:35;;;;;;;25.95;12.38;;;;;;;5.22;77.41;102651.25;5027815;27;98991;-69
2024/01/12 06:20:03;;;;;;;23.98;12.80;;;;;;;5.46;76.68;102658.63;5027403;27;99018;-69
2024/01/12 06:22:30;;;;;;;28.65;14.52;;;;;;;6.05;74.98;102656.03;5028856;27;96741;-69
2024/01/12 06:24:57;;;;;;;31.45;13.93;;;;;;;6.19;73.49;102653.56;5020509;28;97670;-69
2024/01/12 06:27:23;;;;;;;27.98;13.68;;;;;;;6.09;73.06;102655.22;5023219;27;98882;-68
2024/01/12 06:29:50;;;;;;;34.00;15.23;;;;;;;6.19;72.71;102657.09;5015628;27;99046;-69
2024/01/12 06:32:16;;;;;;;30.45;14.30;;;;;;;6.04;73.08;102666.53;5027091;27;96656;-69
2024/01/12 06:34:42;;;;;;;30.15;14.02;;;;;;;6.15;72.68;102662.28;5030800;27;96812;-69
2024/01/12 06:37:09;;;;;;;33.97;13.40;;;;;;;5.52;74.82;102660.44;5026362;27;99679;-68
2024/01/12 06:39:39;;;;;;;28.05;12.98;;;;;;;5.15;76.72;102665.09;5013684;27;100435;-69
2024/01/12 06:42:05;;;;;;;26.17;12.55;;;;;;;4.89;78.37;102658.53;5027297;27;96771;-69
2024/01/12 06:44:32;;;;;;;25.95;12.52;;;;;;;4.80;79.39;102667.09;5026348;27;97423;-69
2024/01/12 06:46:58;;;;;;;24.75;12.27;;;;;;;4.79;79.67;102678.41;5027322;27;99357;-70
2024/01/12 06:49:25;;;;;;;24.83;12.00;;;;;;;4.91;79.49;102672.53;5025973;27;98760;-69
2024/01/12 06:51:51;;;;;;;24.42;11.80;;;;;;;4.91;79.51;102675.16;5020227;27;96754;-69
2024/01/12 06:54:17;;;;;;;20.83;10.77;;;;;;;4.63;79.85;102659.78;5024242;27;97049;-70
2024/01/12 06:56:45;;;;;;;27.00;11.43;;;;;;;4.96;79.15;102663.03;5020087;27;98943;-70
2024/01/12 06:59:11;;;;;;;22.10;10.43;;;;;;;4.82;79.73;102661.88;5024457;27;101380;-70
2024/01/12 07:01:38;;;;;;;18.65;9.50;;;;;;;4.55;79.62;102666.59;5026312;27;97099;-71
2024/01/12 07:04:04;;;;;;;20.45;9.27;;;;;;;4.21;81.24;102654.56;5028598;27;97410;-69
2024/01/12 07:06:31;;;;;;;21.17;8.82;;;;;;;4.52;80.90;102656.97;5022607;27;99346;-69
2024/01/12 07:08:57;;;;;;;20.98;9.98;;;;;;;4.85;79.47;102640.13;5025415;27;99012;-69
2024/01/12 07:11:24;;;;;;;23.95;10.50;;;;;;;5.28;77.89;102649.59;5021435;27;96778;-69
2024/01/12 07:13:52;;;;;;;19.92;10.05;;;;;;;5.61;76.07;102650.13;5025049;27;96798;-70
2024/01/12 07:16:18;;;;;;;43.20;17.27;;;;;;;5.67;74.13;102652.84;5024501;27;98818;-70
2024/01/12 07:18:44;;;;;;;30.63;12.98;;;;;;;5.88;73.47;102636.56;5019997;27;99167;-69
2024/01/12 07:21:11;;;;;;;17.88;8.82;;;;;;;6.06;72.43;102630.66;5023610;27;100179;-69
2024/01/12 07:23:37;;;;;;;19.63;9.73;;;;;;;5.67;73.17;102639.72;5027417;27;96975;-69
2024/01/12 07:26:04;;;;;;;17.50;9.52;;;;;;;5.96;72.75;102633.19;5023482;27;99635;-69
2024/01/12 07:28:31;;;;;;;17.90;8.57;;;;;;;5.97;72.46;102631.44;5022126;27;99618;-69
2024/01/12 07:30:59;;;;;;;15.13;7.95;;;;;;;5.68;73.32;102633.63;5022057;27;98807;-69
2024/01/12 07:33:25;;;;;;;22.20;9.85;;;;;;;5.49;74.03;102621.97;5027304;27;98036;-69
2024/01/12 07:35:52;;;;;;;18.88;9.70;;;;;;;5.52;74.40;102616.75;5025469;27;99324;-70
2024/01/12 07:38:20;;;;;;;24.90;10.43;;;;;;;5.01;76.47;102619.44;5024434;27;100982;-70
2024/01/12 07:40:47;;;;;;;19.35;9.90;;;;;;;4.82;77.81;102625.22;5019458;27;96784;-73
2024/01/12 07:43:13;;;;;;;20.83;10.85;;;;;;;4.66;78.41;102618.81;5022799;27;98330;-73
2024/01/12 07:45:39;;;;;;;20.63;10.43;;;;;;;4.51;80.05;102628.13;5026112;27;99582;-74
2024/01/12 07:48:07;;;;;;;22.13;10.43;;;;;;;4.78;79.09;102628.66;5023012;27;99312;-73
2024/01/12 07:50:34;;;;;;;23.45;10.60;;;;;;;4.93;78.48;102621.03;5021395;27;101170;-73
2024/01/12 07:53:01;;;;;;;25.95;11.13;;;;;;;4.67;79.19;102610.09;5014285;27;98660;-73
2024/01/12 07:55:27;;;;;;;23.52;10.48;;;;;;;4.68;79.83;102605.75;5011564;27;98987;-73
2024/01/12 07:57:53;;;;;;;23.10;9.90;;;;;;;4.87;78.91;102597.38;5010262;27;100312;-73
2024/01/12 08:00:20;;;;;;;18.50;9.00;;;;;;;4.79;78.24;102593.75;5013951;27;98739;-73
2024/01/12 08:02:46;;;;;;;21.50;9.25;;;;;;;4.77;78.52;102591.09;5016353;27;97974;-73
2024/01/12 08:05:14;;;;;;;16.13;8.02;;;;;;;5.04;77.88;102581.94;5019301;27;97875;-73
2024/01/12 08:07:41;;;;;;;19.42;8.77;;;;;;;4.72;78.66;102584.91;5010671;27;101119;-73
2024/01/12 08:10:08;;;;;;;24.50;11.35;;;;;;;4.98;78.14;102589.72;5016458;27;97671;-74
2024/01/12 08:12:35;;;;;;;21.33;9.10;;;;;;;5.00;78.15;102585.34;5022875;27;97494;-73
2024/01/12 08:15:01;;;;;;;19.30;8.23;;;;;;;4.82;78.16;102584.19;5025083;27;97857;-73
2024/01/12 08:17:27;;;;;;;21.77;8.45;;;;;;;4.57;79.77;102581.13;5022527;27;101768;-73
2024/01/12 08:19:54;;;;;;;20.55;8.77;;;;;;;4.34;80.75;102592.03;5020935;27;97102;-72
2024/01/12 08:22:21;;;;;;;18.23;8.45;;;;;;;4.39;81.10;102586.91;5021294;27;96983;-73
2024/01/12 08:24:48;;;;;;;18.10;9.32;;;;;;;4.37;80.58;102571.16;5025320;27;97771;-75
2024/01/12 08:27:14;;;;;;;21.52;9.75;;;;;;;4.08;82.08;102582.78;5026394;27;101477;-76
2024/01/12 08:29:40;;;;;;;21.58;9.43;;;;;;;4.40;81.46;102583.41;5018663;27;97699;-75
2024/01/12 08:32:07;;;;;;;20.92;8.90;;;;;;;4.59;80.13;102585.53;5015749;27;97352;-76
2024/01/12 08:34:33;;;;;;;20.25;8.68;;;;;;;4.76;79.32;102594.56;5023135;28;99191;-76
2024/01/12 08:36:59;;;;;;;17.98;7.97;;;;;;;3.97;81.98;102590.44;5015416;27;99493;-76
2024/01/12 08:39:29;;;;;;;16.98;8.30;;;;;;;3.72;84.27;102597.72;5013932;28;97140;-76
2024/01/12 08:41:55;;;;;;;21.48;9.30;;;;;;;4.04;83.33;102594.06;5021100;27;96850;-75
2024/01/12 08:44:21;;;;;;;23.30;9.88;;;;;;;4.48;81.74;102594.91;5016599;27;98304;-75
2024/01/12 08:46:48;;;;;;;18.50;8.75;;;;;;;4.90;79.31;102593.94;5006722;27;98956;-74
2024/01/12 08:49:14;;;;;;;17.20;8.60;;;;;;;4.92;78.84;102590.50;5017103;27;96885;-74
2024/01/12 08:51:40;;;;;;;17.10;8.48;;;;;;;4.29;80.35;102596.31;5011863;27;98133;-74
2024/01/12 08:54:07;;;;;;;19.67;9.00;;;;;;;4.48;80.88;102597.53;5022690;27;100454;-73
2024/01/12 08:56:34;;;;;;;17.85;8.88;;;;;;;4.65;80.84;102596.13;5023027;27;101749;-74
2024/01/12 08:59:01;;;;;;;22.20;9.77;;;;;;;4.59;80.89;102592.50;5014982;27;97512;-74
2024/01/12 09:01:27;;;;;;;18.90;9.25;;;;;;;4.74;80.29;102590.16;5022804;27;97056;-75
2024/01/12 09:03:53;;;;;;;15.07;7.13;;;;;;;4.08;81.89;102593.25;5013406;27;99457;-74
2024/01/12 09:06:21;;;;;;;13.07;5.55;;;;;;;3.97;83.32;102603.50;5017736;27;99595;-81
2024/01/12 09:08:47;;;;;;;12.35;6.10;;;;;;;3.83;84.96;102598.81;5020330;27;97336;-74
2024/01/12 09:11:13;;;;;;;9.50;5.20;;;;;;;3.27;86.68;102593.22;5022598;27;96959;-74
2024/01/12 09:13:41;;;;;;;9.57;5.75;;;;;;;3.42;86.77;102590.06;5024139;27;99116;-74
2024/01/12 09:16:08;;;;;;;8.90;5.35;;;;;;;3.70;85.59;102602.91;5027555;27;99371;-75
2024/01/12 09:18:37;;;;;;;8.63;5.25;;;;;;;4.04;84.32;102599.28;5017362;27;96948;-75
2024/01/12 09:21:04;;;;;;;11.35;5.10;;;;;;;4.04;84.06;102595.78;5019485;27;96922;-74
2024/01/12 09:23:30;;;;;;;6.45;3.45;;;;;;;3.58;85.16;102603.53;5021936;27;98065;-74
2024/01/12 09:25:57;;;;;;;9.25;5.55;;;;;;;3.61;86.62;102595.72;5021226;27;98894;-73
2024/01/12 09:28:23;;;;;;;9.95;5.20;;;;;;;3.78;85.47;102601.34;5017443;27;97138;-74
2024/01/12 09:30:51;;;;;;;10.68;5.55;;;;;;;3.93;84.11;102603.41;5020089;27;97396;-73
2024/01/12 09:33:17;;;;;;;10.07;4.88;;;;;;;4.08;83.48;102608.06;5020633;27;102693;-74
2024/01/12 09:35:44;;;;;;;9.88;5.10;;;;;;;4.11;83.23;102590.72;5026024;27;99144;-75
2024/01/12 09:38:10;;;;;;;11.52;5.45;;;;;;;3.82;84.32;102587.47;5014387;27;99074;-75
2024/01/12 09:40:37;;;;;;;10.93;5.50;;;;;;;3.84;85.27;102592.75;5019164;27;97699;-74
2024/01/12 09:43:13;;;;;;;11.02;5.53;;;;;;;4.06;84.50;102600.22;5021104;27;99206;-74
2024/01/12 09:45:43;;;;;;;11.90;6.73;;;;;;;3.94;84.34;102579.00;5021471;27;99289;-74
2024/01/12 09:48:11;;;;;;;10.52;5.22;;;;;;;3.93;84.72;102578.16;5022490;27;97822;-74
2024/01/12 09:50:38;;;;;;;14.18;6.50;;;;;;;3.51;86.72;102580.72;5027513;27;97149;-75
2024/01/12 09:53:05;;;;;;;11.25;6.60;;;;;;;3.87;85.13;102582.38;5029363;28;99092;-74
2024/01/12 09:55:32;;;;;;;9.27;5.40;;;;;;;3.87;85.59;102578.00;5032204;27;99077;-74
2024/01/12 09:57:59;;;;;;;10.85;5.10;;;;;;;4.49;82.96;102569.63;5024648;27;96923;-73
2024/01/12 10:00:27;;;;;;;9.25;4.90;;;;;;;4.51;81.03;102560.06;5030428;27;97531;-73
2024/01/12 10:02:55;;;;;;;11.60;5.22;;;;;;;4.93;79.31;102562.53;5022523;27;98821;-73
2024/01/12 10:05:23;;;;;;;11.10;5.30;;;;;;;4.67;79.61;102557.72;5033254;27;98766;-73
2024/01/12 10:07:49;;;;;;;9.07;4.13;;;;;;;3.56;83.99;102565.13;5030379;27;97653;-74
2024/01/12 10:10:16;;;;;;;10.73;5.45;;;;;;;4.06;84.53;102566.19;5022234;27;96944;-75
2024/01/12 10:12:42;;;;;;;12.73;6.03;;;;;;;4.38;82.44;102557.22;5023895;27;102480;-74
2024/01/12 10:15:10;;;;;;;11.45;6.28;;;;;;;4.47;82.38;102553.00;5020195;27;100478;-73
2024/01/12 10:17:36;;;;;;;11.38;5.82;;;;;;;4.03;83.63;102560.88;5027929;28;98655;-73
2024/01/12 10:20:03;;;;;;;12.38;4.82;;;;;;;3.84;83.99;102561.38;5022184;27;97422;-74
2024/01/12 10:22:32;;;;;;;15.00;6.50;;;;;;;4.26;83.80;102557.00;5025617;27;99174;-73
2024/01/12 10:24:59;;;;;;;15.05;6.28;;;;;;;4.41;83.16;102548.53;5024957;27;99149;-73
2024/01/12 10:27:26;;;;;;;14.02;6.10;;;;;;;4.50;81.95;102548.72;5031336;27;97056;-74
2024/01/12 10:29:52;;;;;;;13.13;6.25;;;;;;;4.52;82.43;102556.59;5024212;27;97220;-74
2024/01/12 10:32:19;;;;;;;13.23;5.57;;;;;;;4.68;81.40;102548.13;5026026;27;99013;-73
2024/01/12 10:34:47;;;;;;;11.25;6.38;;;;;;;4.23;82.78;102551.69;5030487;27;99428;-74
2024/01/12 10:37:15;;;;;;;15.88;6.82;;;;;;;3.56;87.32;102549.44;5027227;27;98361;-75
2024/01/12 10:39:45;;;;;;;14.02;6.82;;;;;;;3.79;87.62;102556.06;5025319;27;97894;-74
2024/01/12 10:42:12;;;;;;;19.75;8.18;;;;;;;4.08;85.67;102560.97;5028727;27;99181;-74
2024/01/12 10:44:40;;;;;;;15.68;7.25;;;;;;;3.30;88.47;102555.81;5021438;27;100880;-74
2024/01/12 10:47:09;;;;;;;18.15;8.27;;;;;;;2.79;93.52;102554.63;5027191;27;96865;-76
2024/01/12 10:49:45;;;;;;;12.98;4.95;;;;;;;2.76;93.45;102553.63;5025691;27;97482;-74
2024/01/12 10:52:14;;;;;;;16.70;7.20;;;;;;;2.89;93.86;102558.31;5023086;27;98924;-74
2024/01/12 10:54:49;;;;;;;22.48;8.25;;;;;;;3.31;91.67;102561.06;5025546;27;99267;-76
2024/01/12 10:57:16;;;;;;;22.33;8.23;;;;;;;2.93;93.65;102546.22;5021867;27;97446;-76
2024/01/12 10:59:45;;;;;;;19.08;9.02;;;;;;;3.25;93.01;102550.50;5019175;27;96804;-75
2024/01/12 11:02:13;;;;;;;22.77;8.43;;;;;;;3.57;90.31;102552.09;5023887;27;98695;-75
2024/01/12 11:04:41;;;;;;;20.48;8.43;;;;;;;3.68;90.03;102547.06;5027162;28;101678;-76
2024/01/12 11:07:08;;;;;;;17.02;7.53;;;;;;;3.51;89.01;102535.38;5026965;27;96840;-74
2024/01/12 11:09:35;;;;;;;14.38;6.72;;;;;;;3.52;88.73;102540.66;5022974;27;98390;-74
2024/01/12 11:12:07;;;;;;;12.60;6.22;;;;;;;3.64;87.76;102524.34;5019127;27;99197;-74
2024/01/12 11:14:34;;;;;;;15.95;7.20;;;;;;;3.27;88.82;102527.91;5019877;27;99460;-74
2024/01/12 11:17:01;;;;;;;17.52;7.53;;;;;;;3.60;89.18;102520.81;5016919;27;97893;-74